Time;durP1;ratioP1;P1;durP2;ratioP2;P2;SDS_P1;SDS_P2;PMS_P1;PMS_P2;Temp;Humidity;BMP_temperature;BMP_pressure;BME280_temperature;BME280_humidity;BME280_pressure;Samples;Min_cycle;Max_cycle;Signal;HPM_P1;HPM_P2
2023/05/15 00:01:56;;;;;;;;;;;;;;;16.52;54.48;101142.72;5076186;28;1010;-60
2023/05/15 00:04:22;;;;;;;;;;;;;;;17.61;51.90;101146.78;5076319;28;1102;-60
2023/05/15 00:06:48;;;;;;;;;;;;;;;16.69;54.24;101153.53;5076344;28;1196;-59
2023/05/15 00:09:13;;;;;;;;;;;;;;;16.36;54.99;101149.19;5076385;28;1205;-60
2023/05/15 00:11:39;;;;;;;;;;;;;;;16.20;54.86;101135.34;5076393;28;1209;-60
2023/05/15 00:14:04;;;;;;;;;;;;;;;16.06;55.10;101143.19;5076452;28;1910;-60
2023/05/15 00:16:30;;;;;;;;;;;;;;;17.37;52.90;101143.72;5075264;28;1093;-61
2023/05/15 00:18:55;;;;;;;;;;;;;;;16.88;53.81;101145.69;5076215;28;1162;-60
2023/05/15 00:21:21;;;;;;;;;;;;;;;16.42;54.75;101137.97;5076143;28;1346;-60
2023/05/15 00:23:46;;;;;;;;;;;;;;;16.19;54.88;101138.34;5077567;28;854;-60
2023/05/15 00:26:14;;;;;;;;;;;;;;;16.29;55.03;101146.66;5075978;28;1209;-61
2023/05/15 00:28:40;;;;;;;;;;;;;;;17.59;51.89;101151.75;5076367;28;1102;-61
2023/05/15 00:31:07;;;;;;;;;;;;;;;16.71;54.13;101151.31;5082430;28;1217;-60
2023/05/15 00:33:33;;;;;;;;;;;;;;;16.37;54.85;101143.44;5083654;28;1120;-60
2023/05/15 00:35:58;;;;;;;;;;;;;;;16.16;54.93;101127.88;5084968;28;1980;-60
2023/05/15 00:38:24;;;;;;;;;;;;;;;17.02;53.91;101135.03;5058430;28;1109;-60
2023/05/15 00:40:49;;;;;;;;;;;;;;;17.37;52.49;101141.78;5076011;28;1035;-60
2023/05/15 00:43:15;;;;;;;;;;;;;;;16.68;54.20;101135.41;5058499;28;1102;-61
2023/05/15 00:45:40;;;;;;;;;;;;;;;16.39;54.90;101138.47;5058025;28;1067;-60
2023/05/15 00:48:06;;;;;;;;;;;;;;;16.23;55.11;101132.06;5048750;28;869;-61
2023/05/15 00:50:32;;;;;;;;;;;;;;;16.10;55.20;101128.94;5057343;28;1153;-61
2023/05/15 00:52:58;;;;;;;;;;;;;;;16.31;55.11;101130.72;5075954;28;1107;-61
2023/05/15 00:55:23;;;;;;;;;;;;;;;17.69;51.84;101145.44;5075973;28;1976;-61
2023/05/15 00:57:49;;;;;;;;;;;;;;;16.81;54.03;101139.56;5058703;28;1138;-61
2023/05/15 01:00:17;;;;;;;;;;;;;;;16.38;54.72;101136.00;5052505;28;1224;-61
2023/05/15 01:02:43;;;;;;;;;;;;;;;16.17;55.09;101129.53;5033616;28;1151;-61
2023/05/15 01:05:08;;;;;;;;;;;;;;;16.07;55.20;101113.81;5076091;28;1111;-61
2023/05/15 01:07:35;;;;;;;;;;;;;;;17.15;53.54;101119.16;5076405;28;1034;-61
2023/05/15 01:10:03;;;;;;;;;;;;;;;17.23;52.84;101119.47;5058227;28;1186;-61
2023/05/15 01:12:29;;;;;;;;;;;;;;;16.61;54.45;101112.84;5067261;28;1011;-61
2023/05/15 01:14:55;;;;;;;;;;;;;;;16.31;54.98;101108.78;5057178;28;1973;-61
2023/05/15 01:17:20;;;;;;;;;;;;;;;16.17;55.11;101093.88;5076316;28;1063;-61
2023/05/15 01:19:46;;;;;;;;;;;;;;;16.87;54.25;101088.25;5075710;28;1050;-61
2023/05/15 01:22:17;;;;;;;;;;;;;;;17.21;52.87;101107.13;5028918;28;1182;-61
2023/05/15 01:24:51;;;;;;;;;;;;;;;16.56;54.47;101104.56;5079081;28;1092;-61
2023/05/15 01:27:23;;;;;;;;;;;;;;;16.29;54.96;101105.50;5071713;28;1134;-61
2023/05/15 01:29:58;;;;;;;;;;;;;;;16.15;55.06;101104.28;5079716;28;1121;-59
2023/05/15 01:32:25;;;;;;;;;;;;;;;17.09;53.50;101101.84;5079358;28;1114;-60
2023/05/15 01:34:52;;;;;;;;;;;;;;;17.21;52.94;101096.13;5063798;28;1985;-61
2023/05/15 01:37:18;;;;;;;;;;;;;;;16.62;54.36;101081.56;5064121;28;1287;-61
2023/05/15 01:39:43;;;;;;;;;;;;;;;16.32;54.99;101083.00;5044615;28;2116;-62
2023/05/15 01:42:09;;;;;;;;;;;;;;;16.16;55.03;101070.25;5079135;28;1154;-61
2023/05/15 01:44:45;;;;;;;;;;;;;;;16.06;55.35;101057.28;5079306;28;1134;-61
2023/05/15 01:47:15;;;;;;;;;;;;;;;17.61;52.11;101051.38;5065173;28;1134;-61
2023/05/15 01:49:42;;;;;;;;;;;;;;;16.91;53.85;101046.28;5068521;28;1110;-61
2023/05/15 01:52:15;;;;;;;;;;;;;;;16.46;54.76;101049.63;5060846;28;1441;-61
2023/05/15 01:54:41;;;;;;;;;;;;;;;16.28;55.01;101048.13;5079294;28;1906;-61
2023/05/15 01:57:07;;;;;;;;;;;;;;;16.14;55.01;101048.59;5060954;28;1417;-61
2023/05/15 01:59:33;;;;;;;;;;;;;;;17.51;52.56;101056.84;5067327;28;1251;-61
2023/05/15 02:02:00;;;;;;;;;;;;;;;16.82;54.05;101049.78;5057209;28;1128;-61
2023/05/15 02:04:26;;;;;;;;;;;;;;;16.39;55.03;101042.44;5054160;28;1202;-61
2023/05/15 02:06:52;;;;;;;;;;;;;;;16.20;55.28;101035.72;5060860;28;1597;-61
2023/05/15 02:09:18;;;;;;;;;;;;;;;16.33;55.11;101038.00;5060916;28;1603;-61
2023/05/15 02:11:44;;;;;;;;;;;;;;;17.49;52.47;101038.97;5072896;28;1209;-61
2023/05/15 02:14:10;;;;;;;;;;;;;;;16.67;54.48;101034.88;5053772;28;1922;-61
2023/05/15 02:16:35;;;;;;;;;;;;;;;16.37;55.14;101028.16;5078412;28;1192;-61
2023/05/15 02:19:01;;;;;;;;;;;;;;;16.16;55.26;101029.97;5078385;28;1126;-60
2023/05/15 02:21:26;;;;;;;;;;;;;;;16.40;55.16;101040.53;5083375;28;1079;-60
2023/05/15 02:23:52;;;;;;;;;;;;;;;17.45;52.46;101034.03;5092308;28;1085;-60
2023/05/15 02:26:21;;;;;;;;;;;;;;;16.67;54.49;101032.13;5078424;28;1098;-60
2023/05/15 02:28:56;;;;;;;;;;;;;;;16.34;55.28;101042.41;5060233;28;1133;-60
2023/05/15 02:31:31;;;;;;;;;;;;;;;16.18;55.30;101040.66;5048644;28;1019;-61
2023/05/15 02:34:12;;;;;;;;;;;;;;;17.58;52.39;101034.59;5043881;28;1445;-60
2023/05/15 02:36:39;;;;;;;;;;;;;;;16.81;54.20;101034.41;5061370;28;891;-60
2023/05/15 02:39:04;;;;;;;;;;;;;;;16.43;55.05;101024.34;5076919;28;1106;-61
2023/05/15 02:41:30;;;;;;;;;;;;;;;16.21;55.26;101015.44;5077835;28;1042;-60
2023/05/15 02:43:59;;;;;;;;;;;;;;;16.71;54.68;101019.53;5078236;28;1153;-61
2023/05/15 02:46:24;;;;;;;;;;;;;;;17.56;52.19;101009.31;5059963;28;1058;-60
2023/05/15 02:48:50;;;;;;;;;;;;;;;16.68;54.69;101013.75;5069082;28;1265;-62
2023/05/15 02:51:16;;;;;;;;;;;;;;;16.41;55.17;101018.31;5077917;28;1107;-62
2023/05/15 02:53:41;;;;;;;;;;;;;;;16.27;55.16;101013.53;5059380;28;1164;-62
2023/05/15 02:56:07;;;;;;;;;;;;;;;17.33;53.39;101014.22;5077691;28;1902;-58
2023/05/15 02:58:33;;;;;;;;;;;;;;;17.15;53.48;101014.75;5059806;28;1288;-59
2023/05/15 03:00:59;;;;;;;;;;;;;;;16.58;54.77;101020.03;5077292;28;949;-59
2023/05/15 03:03:25;;;;;;;;;;;;;;;16.34;55.08;101025.09;5059396;28;1600;-59
2023/05/15 03:05:51;;;;;;;;;;;;;;;16.21;55.18;101015.44;5059333;28;1398;-59
2023/05/15 03:08:18;;;;;;;;;;;;;;;16.51;55.11;101014.78;5058881;28;1413;-59
2023/05/15 03:10:43;;;;;;;;;;;;;;;17.71;52.19;101009.31;5077346;28;1042;-59
2023/05/15 03:13:09;;;;;;;;;;;;;;;16.82;54.48;101019.59;5083580;28;1074;-58
2023/05/15 03:15:35;;;;;;;;;;;;;;;16.45;55.23;101026.00;5068538;28;1902;-59
2023/05/15 03:18:01;;;;;;;;;;;;;;;16.25;55.12;101011.06;5077429;28;1170;-59
2023/05/15 03:20:27;;;;;;;;;;;;;;;16.12;55.40;101011.53;5077115;28;1074;-59
2023/05/15 03:22:52;;;;;;;;;;;;;;;16.84;54.69;101011.88;5059343;28;1210;-59
2023/05/15 03:25:18;;;;;;;;;;;;;;;17.26;53.44;101003.50;5081040;28;836;-59
2023/05/15 03:27:43;;;;;;;;;;;;;;;16.62;54.94;101009.31;5076588;28;1156;-59
2023/05/15 03:30:09;;;;;;;;;;;;;;;16.37;55.40;101008.94;5059007;28;1143;-60
2023/05/15 03:32:35;;;;;;;;;;;;;;;16.17;55.48;101011.56;5077195;28;1150;-59
2023/05/15 03:35:00;;;;;;;;;;;;;;;16.07;55.58;101004.09;5077027;28;1882;-58
2023/05/15 03:37:26;;;;;;;;;;;;;;;17.14;54.10;101015.84;5087604;28;1118;-60
2023/05/15 03:39:52;;;;;;;;;;;;;;;17.27;53.51;101018.06;5077140;28;1117;-59
2023/05/15 03:42:22;;;;;;;;;;;;;;;16.61;54.84;101011.25;5076821;28;1101;-59
2023/05/15 03:44:48;;;;;;;;;;;;;;;16.35;55.58;101015.78;5077183;28;1087;-60
2023/05/15 03:47:13;;;;;;;;;;;;;;;16.19;55.41;101014.88;5076167;28;1295;-59
2023/05/15 03:49:39;;;;;;;;;;;;;;;16.02;55.55;101007.63;5076661;28;862;-58
2023/05/15 03:52:05;;;;;;;;;;;;;;;16.82;54.77;101014.09;5076774;28;1086;-60
2023/05/15 03:54:31;;;;;;;;;;;;;;;17.21;53.65;101010.94;5069836;28;1889;-58
2023/05/15 03:56:56;;;;;;;;;;;;;;;16.54;55.13;101024.41;5042618;28;1230;-61
2023/05/15 03:59:22;;;;;;;;;;;;;;;16.30;55.75;101029.47;5068215;28;1019;-59
2023/05/15 04:01:48;;;;;;;;;;;;;;;16.12;55.53;101030.72;5088682;28;1114;-60
2023/05/15 04:04:14;;;;;;;;;;;;;;;15.98;55.77;101033.94;5076210;28;979;-60
2023/05/15 04:06:39;;;;;;;;;;;;;;;16.93;54.74;101043.28;5076383;28;1090;-62
2023/05/15 04:09:05;;;;;;;;;;;;;;;17.45;53.04;101034.03;5076625;28;1134;-63
2023/05/15 04:11:33;;;;;;;;;;;;;;;16.67;55.20;101032.13;5076860;28;1158;-61
2023/05/15 04:13:58;;;;;;;;;;;;;;;16.32;55.64;101032.78;5082680;28;891;-61
2023/05/15 04:16:24;;;;;;;;;;;;;;;16.16;55.81;101023.63;5076166;28;1909;-61
2023/05/15 04:18:49;;;;;;;;;;;;;;;16.88;54.99;101019.34;5076066;28;1051;-61
2023/05/15 04:21:15;;;;;;;;;;;;;;;17.26;53.53;101020.00;5076294;28;1146;-61
2023/05/15 04:23:40;;;;;;;;;;;;;;;16.56;55.29;101033.19;5075630;28;1085;-60
2023/05/15 04:26:07;;;;;;;;;;;;;;;16.33;55.61;101035.25;5077088;28;968;-58
2023/05/15 04:28:32;;;;;;;;;;;;;;;16.18;55.54;101037.91;5076292;28;1036;-58
2023/05/15 04:30:58;;;;;;;;;;;;;;;16.16;55.59;101040.94;5076498;28;1122;-58
2023/05/15 04:33:24;;;;;;;;;;;;;;;17.59;53.09;101050.81;5076452;28;1062;-59
2023/05/15 04:35:50;;;;;;;;;;;;;;;16.86;54.41;101051.72;5075947;28;1986;-63
2023/05/15 04:38:16;;;;;;;;;;;;;;;16.41;55.38;101051.22;5084036;28;904;-59
2023/05/15 04:40:42;;;;;;;;;;;;;;;16.23;55.63;101048.94;5076261;28;1121;-61
2023/05/15 04:43:07;;;;;;;;;;;;;;;16.13;55.74;101052.44;5076392;28;1256;-60
2023/05/15 04:45:33;;;;;;;;;;;;;;;17.45;53.41;101052.47;5075957;28;1138;-60
2023/05/15 04:47:59;;;;;;;;;;;;;;;16.85;54.74;101068.47;5076144;28;1103;-63
2023/05/15 04:50:24;;;;;;;;;;;;;;;16.40;55.65;101066.03;5064466;28;912;-54
2023/05/15 04:52:50;;;;;;;;;;;;;;;16.21;55.80;101059.34;5075909;28;1213;-60
2023/05/15 04:55:16;;;;;;;;;;;;;;;17.42;53.55;101070.31;5076231;28;1910;-60
2023/05/15 04:57:41;;;;;;;;;;;;;;;16.98;54.43;101075.41;5076526;28;1138;-63
2023/05/15 05:00:11;;;;;;;;;;;;;;;16.50;55.12;101072.69;5075608;28;1158;-62
2023/05/15 05:02:39;;;;;;;;;;;;;;;17.35;53.27;101064.25;5069301;28;964;-60
2023/05/15 05:05:06;;;;;;;;;;;;;;;16.52;53.25;101056.78;5079991;28;1197;-58
2023/05/15 05:07:32;;;;;;;;;;;;;;;16.21;51.96;101060.16;5061852;28;1213;-60
2023/05/15 05:09:57;;;;;;;;;;;;;;;16.07;50.94;101053.47;5092923;28;1267;-60
2023/05/15 05:12:23;;;;;;;;;;;;;;;16.03;50.19;101044.13;5062348;28;1095;-59
2023/05/15 05:14:48;;;;;;;;;;;;;;;16.58;51.90;101025.53;5068193;28;1905;-60
2023/05/15 05:17:14;;;;;;;;;;;;;;;16.54;53.07;101016.16;5064420;28;1253;-60
2023/05/15 05:19:40;;;;;;;;;;;;;;;16.28;51.93;101029.75;5067203;28;1027;-59
2023/05/15 05:22:06;;;;;;;;;;;;;;;16.12;51.17;101034.31;5091317;28;1056;-60
2023/05/15 05:24:32;;;;;;;;;;;;;;;16.79;52.39;101048.41;5079610;28;1067;-61
2023/05/15 05:26:57;;;;;;;;;;;;;;;16.36;51.64;101056.69;5079062;28;1007;-61
2023/05/15 05:29:23;;;;;;;;;;;;;;;16.48;51.82;101055.66;5091534;28;1198;-61
2023/05/15 05:31:49;;;;;;;;;;;;;;;16.91;52.39;101028.97;5098736;28;1105;-62
2023/05/15 05:34:15;;;;;;;;;;;;;;;16.44;51.43;101019.69;5087526;28;1902;-63
2023/05/15 05:36:40;;;;;;;;;;;;;;;16.28;50.50;101018.75;5098133;28;1166;-63
2023/05/15 05:39:06;;;;;;;;;;;;;;;16.31;50.07;101020.16;5087063;28;1189;-58
2023/05/15 05:41:31;;;;;;;;;;;;;;;17.22;51.66;101029.03;5078615;28;1062;-57
2023/05/15 05:43:57;;;;;;;;;;;;;;;16.60;51.26;101015.09;5078526;28;1427;-57
2023/05/15 05:46:22;;;;;;;;;;;;;;;16.89;51.68;101020.19;5087354;28;1087;-58
2023/05/15 05:48:48;;;;;;;;;;;;;;;16.85;51.80;101014.34;5066611;28;1166;-59
2023/05/15 05:51:14;;;;;;;;;;;;;;;16.53;50.44;101023.56;5061945;28;1039;-59
2023/05/15 05:53:40;;;;;;;;;;;;;;;16.38;49.42;101027.06;5066943;28;1256;-58
2023/05/15 05:56:05;;;;;;;;;;;;;;;16.39;49.78;101034.19;5078554;28;1909;-58
2023/05/15 05:58:31;;;;;;;;;;;;;;;16.76;50.79;101043.44;5069583;28;1028;-58
2023/05/15 06:00:57;;;;;;;;;;;;;;;16.43;49.92;101029.81;5072703;28;1321;-58
2023/05/15 06:03:22;;;;;;;;;;;;;;;17.34;50.45;101045.31;5072144;28;1285;-58
2023/05/15 06:05:48;;;;;;;;;;;;;;;16.61;50.84;101046.94;5070654;28;1122;-60
2023/05/15 06:08:14;;;;;;;;;;;;;;;16.48;49.49;101050.16;5067613;28;1285;-60
2023/05/15 06:10:40;;;;;;;;;;;;;;;16.19;49.15;101050.56;5068282;28;1317;-57
2023/05/15 06:13:06;;;;;;;;;;;;;;;16.77;49.79;101048.69;5062545;28;1127;-55
2023/05/15 06:15:31;;;;;;;;;;;;;;;16.68;50.37;101052.19;5069386;28;1963;-53
2023/05/15 06:17:57;;;;;;;;;;;;;;;16.39;49.73;101045.16;5086795;28;1185;-54
2023/05/15 06:20:22;;;;;;;;;;;;;;;16.21;48.92;101048.34;5068246;28;1226;-54
2023/05/15 06:22:48;;;;;;;;;;;;;;;16.80;49.69;101046.47;5071205;28;1277;-56
2023/05/15 06:25:14;;;;;;;;;;;;;;;16.88;50.59;101046.81;5074202;28;1026;-55
2023/05/15 06:27:40;;;;;;;;;;;;;;;16.54;49.67;101049.13;5087122;28;1090;-53
2023/05/15 06:30:06;;;;;;;;;;;;;;;16.38;48.67;101048.19;5072598;28;1063;-54
2023/05/15 06:32:32;;;;;;;;;;;;;;;16.31;49.34;101031.94;5098002;28;1062;-52
2023/05/15 06:34:58;;;;;;;;;;;;;;;17.24;50.02;101037.88;5063860;28;1973;-55
2023/05/15 06:37:23;;;;;;;;;;;;;;;16.61;50.22;101022.25;5097975;28;1130;-56
2023/05/15 06:39:49;;;;;;;;;;;;;;;16.42;49.20;101017.22;5078125;28;1153;-55
2023/05/15 06:42:14;;;;;;;;;;;;;;;17.07;50.17;101030.66;5086965;28;1126;-55
2023/05/15 06:44:40;;;;;;;;;;;;;;;16.62;49.96;101029.38;5082349;28;1027;-55
2023/05/15 06:47:06;;;;;;;;;;;;;;;16.57;49.75;101032.09;5098035;28;1225;-51
2023/05/15 06:49:31;;;;;;;;;;;;;;;17.18;50.57;101038.94;5080176;28;1118;-52
2023/05/15 06:51:57;;;;;;;;;;;;;;;16.69;49.78;101032.72;5070686;28;1172;-55
2023/05/15 06:54:22;;;;;;;;;;;;;;;16.67;49.51;101045.88;5066032;28;1910;-53
2023/05/15 06:56:48;;;;;;;;;;;;;;;17.38;50.68;101032.66;5067622;28;1230;-54
2023/05/15 06:59:13;;;;;;;;;;;;;;;16.82;50.50;101025.06;5066629;28;1534;-51
2023/05/15 07:01:39;;;;;;;;;;;;;;;16.74;49.55;101029.16;5074143;28;1245;-54
2023/05/15 07:04:05;;;;;;;;;;;;;;;16.56;49.10;101019.47;5090343;28;1174;-55
2023/05/15 07:06:30;;;;;;;;;;;;;;;16.43;48.29;101012.53;5071371;28;1048;-54
2023/05/15 07:08:56;;;;;;;;;;;;;;;17.23;49.78;101001.28;5079731;28;1213;-52
2023/05/15 07:14:57;;;;;;;;;;;;;;;16.48;48.50;101003.50;5065991;28;1972;-55
2023/05/15 07:17:23;;;;;;;;;;;;;;;17.25;49.52;100995.50;5065048;28;1289;-52
2023/05/15 07:19:48;;;;;;;;;;;;;;;16.69;49.48;100999.75;5061122;28;1344;-53
2023/05/15 07:22:14;;;;;;;;;;;;;;;16.53;48.78;101003.53;5068119;28;1268;-51
2023/05/15 07:24:40;;;;;;;;;;;;;;;16.41;48.04;101001.84;5068682;28;1215;-51
2023/05/15 07:27:05;;;;;;;;;;;;;;;17.17;48.88;100998.81;5060211;28;1229;-54
2023/05/15 07:29:31;;;;;;;;;;;;;;;16.79;49.61;101003.63;5094275;28;1119;-52
2023/05/15 07:31:56;;;;;;;;;;;;;;;16.56;49.03;101022.19;5070068;28;1269;-51
2023/05/15 07:34:22;;;;;;;;;;;;;;;17.20;49.36;101034.00;5067911;28;1986;-52
2023/05/15 07:36:48;;;;;;;;;;;;;;;16.95;49.60;101040.25;5083798;28;1269;-53
2023/05/15 07:39:13;;;;;;;;;;;;;;;16.64;48.75;101013.47;5096707;28;902;-52
2023/05/15 07:41:39;;;;;;;;;;;;;;;16.37;48.38;101002.66;5057767;28;1461;-53
2023/05/15 07:44:05;;;;;;;;;;;;;;;16.43;48.13;101001.56;5064585;28;1259;-53
2023/05/15 07:46:30;;;;;;;;;;;;;;;17.26;49.47;101003.50;5069269;28;1158;-53
2023/05/15 07:48:56;;;;;;;;;;;;;;;16.74;49.22;101001.69;5079883;28;1019;-54
2023/05/15 07:51:22;;;;;;;;;;;;;;;16.57;49.06;101002.72;5065304;28;1036;-56
2023/05/15 07:53:47;;;;;;;;;;;;;;;17.04;49.48;101001.00;5075635;28;1111;-56
2023/05/15 07:56:13;;;;;;;;;;;;;;;16.67;49.07;100990.94;5060590;28;1918;-56
2023/05/15 07:58:39;;;;;;;;;;;;;;;16.59;48.28;100984.06;5084847;28;1098;-57
2023/05/15 08:01:04;;;;;;;;;;;;;;;17.52;48.95;100980.72;5096401;28;1074;-54
2023/05/15 08:03:30;;;;;;;;;;;;;;;16.81;49.50;100983.03;5081064;28;1059;-56
2023/05/15 08:05:56;;;;;;;;;;;;;;;16.58;48.80;101003.56;5064086;28;1250;-56
2023/05/15 08:08:21;;;;;;;;;;;;;;;16.56;47.88;101005.72;5065704;28;1230;-54
2023/05/15 08:10:47;;;;;;;;;;;;;;;16.48;47.46;100996.09;5065238;28;1301;-55
2023/05/15 08:13:12;;;;;;;;;;;;;;;17.31;48.89;101008.19;5058167;28;1245;-54
2023/05/15 08:15:38;;;;;;;;;;;;;;;16.76;48.69;101014.06;5058970;28;1909;-54
2023/05/15 08:18:07;;;;;;;;;;;;;;;17.15;49.51;101017.50;5065809;28;1225;-54
2023/05/15 08:20:32;;;;;;;;;;;;;;;16.93;49.71;101016.63;5059813;28;1245;-55
2023/05/15 08:22:58;;;;;;;;;;;;;;;16.69;48.58;101016.25;5091082;28;1022;-56
2023/05/15 08:25:23;;;;;;;;;;;;;;;16.59;48.26;101006.03;5087885;28;1126;-55
2023/05/15 08:27:49;;;;;;;;;;;;;;;16.54;47.65;101002.44;5095334;28;1113;-55
2023/05/15 08:30:14;;;;;;;;;;;;;;;16.35;47.38;100994.66;5095027;28;1161;-56
2023/05/15 08:32:41;;;;;;;;;;;;;;;16.24;47.38;100998.44;5078432;28;1131;-55
2023/05/15 08:35:07;;;;;;;;;;;;;;;17.15;48.28;101003.75;5087240;28;1905;-56
2023/05/15 08:37:33;;;;;;;;;;;;;;;16.69;49.01;100998.91;5097909;28;1027;-56
2023/05/15 08:39:58;;;;;;;;;;;;;;;16.50;48.28;100995.84;5100391;28;1016;-56
2023/05/15 08:42:26;;;;;;;;;;;;;;;16.40;47.68;100986.44;5094579;28;1054;-56
2023/05/15 08:44:51;;;;;;;;;;;;;;;17.43;48.19;100985.91;5074058;28;1146;-56
2023/05/15 08:47:18;;;;;;;;;;;;;;;16.70;49.01;100990.41;5077051;28;1146;-56
2023/05/15 08:50:04;;;;;;;;;;;;;;;16.56;48.37;100978.28;5079928;28;1030;-56
2023/05/15 08:52:33;;;;;;;;;;;;;;;16.58;48.29;100981.59;5076769;28;1127;-56
2023/05/15 08:54:59;;;;;;;;;;;;;;;16.91;49.07;100974.88;5098584;28;1967;-55
2023/05/15 08:57:25;;;;;;;;;;;;;;;16.62;48.28;100968.16;5088255;28;1066;-55
2023/05/15 08:59:51;;;;;;;;;;;;;;;16.45;47.75;100965.59;5100029;28;1097;-55
2023/05/15 09:02:17;;;;;;;;;;;;;;;16.45;47.70;100954.63;5099472;28;1130;-56
2023/05/15 09:04:43;;;;;;;;;;;;;;;17.06;48.44;100954.00;5094261;28;1105;-55
2023/05/15 09:07:08;;;;;;;;;;;;;;;16.89;48.75;100954.25;5079809;28;1066;-56
2023/05/15 09:09:34;;;;;;;;;;;;;;;16.57;48.23;100963.47;5056736;28;1187;-56
2023/05/15 09:12:02;;;;;;;;;;;;;;;17.34;48.45;100965.59;5074215;28;1127;-55
2023/05/15 09:14:28;;;;;;;;;;;;;;;16.72;48.93;100977.25;5084799;28;1906;-55
2023/05/15 09:16:53;;;;;;;;;;;;;;;16.56;48.30;100986.50;5084649;28;1157;-55
2023/05/15 09:19:20;;;;;;;;;;;;;;;16.44;47.37;100995.00;5065294;28;1174;-57
2023/05/15 09:21:46;;;;;;;;;;;;;;;17.36;48.38;100988.13;5074176;28;1151;-56
2023/05/15 09:24:17;;;;;;;;;;;;;;;16.79;49.08;100984.41;5095423;28;998;-55
2023/05/15 09:26:43;;;;;;;;;;;;;;;16.56;48.40;100976.38;5064122;28;1092;-55
2023/05/15 09:29:10;;;;;;;;;;;;;;;16.54;47.63;100967.56;5076273;28;1112;-55
2023/05/15 09:31:35;;;;;;;;;;;;;;;17.41;48.37;100977.94;5063068;28;1165;-54
2023/05/15 09:34:03;;;;;;;;;;;;;;;16.84;48.77;100973.44;5051291;28;1321;-54
2023/05/15 09:36:29;;;;;;;;;;;;;;;16.56;48.46;100972.78;5069083;28;1917;-55
2023/05/15 09:38:58;;;;;;;;;;;;;;;17.22;48.68;100968.59;5067291;28;1356;-52
2023/05/15 09:41:24;;;;;;;;;;;;;;;17.21;49.16;100966.97;5066714;28;1190;-54
2023/05/15 09:43:50;;;;;;;;;;;;;;;16.74;49.00;100969.56;5068336;28;1214;-54
2023/05/15 09:46:16;;;;;;;;;;;;;;;16.65;47.92;100965.69;5068142;28;1194;-54
2023/05/15 09:48:41;;;;;;;;;;;;;;;16.47;47.44;100953.28;5068578;28;1262;-54
2023/05/15 09:51:14;;;;;;;;;;;;;;;16.46;46.93;100956.28;5046110;28;1313;-54
2023/05/15 09:53:39;;;;;;;;;;;;;;;16.39;46.74;100951.84;5063562;28;1082;-50
2023/05/15 09:56:05;;;;;;;;;;;;;;;16.28;46.31;100952.91;5057055;28;1917;-54
2023/05/15 09:58:31;;;;;;;;;;;;;;;17.21;47.95;100954.03;5058047;28;1304;-54
2023/05/15 10:00:56;;;;;;;;;;;;;;;16.58;48.31;100940.41;5059600;28;1285;-53
2023/05/15 10:03:22;;;;;;;;;;;;;;;16.47;47.75;100947.78;5045490;28;1420;-55
2023/05/15 10:05:48;;;;;;;;;;;;;;;16.38;47.33;100933.75;5058224;28;1320;-53
2023/05/15 10:08:14;;;;;;;;;;;;;;;16.95;47.93;100936.69;5058445;28;1296;-55
2023/05/15 10:10:40;;;;;;;;;;;;;;;16.71;48.13;100933.59;5061164;28;1308;-55
2023/05/15 10:13:06;;;;;;;;;;;;;;;16.47;47.64;100941.47;5058606;28;1315;-55
2023/05/15 10:15:31;;;;;;;;;;;;;;;17.33;48.45;100937.25;5061651;28;1926;-55
2023/05/15 10:17:57;;;;;;;;;;;;;;;16.71;48.62;100937.16;5040093;28;1160;-55
2023/05/15 10:20:23;;;;;;;;;;;;;;;16.52;47.74;100931.34;5054581;28;1060;-55
2023/05/15 10:22:49;;;;;;;;;;;;;;;16.47;47.32;100936.81;5064690;28;1170;-54
2023/05/15 10:25:34;;;;;;;;;;;;;;;17.32;48.19;100932.03;5070207;28;1210;-55
2023/05/15 10:28:00;;;;;;;;;;;;;;;16.70;48.39;100932.75;5065576;28;1170;-55
2023/05/15 10:30:25;;;;;;;;;;;;;;;16.57;48.25;100930.53;5057843;28;1288;-55
2023/05/15 10:32:51;;;;;;;;;;;;;;;17.32;48.65;100930.13;5051612;28;1304;-55
2023/05/15 10:35:17;;;;;;;;;;;;;;;16.81;48.59;100935.53;5096588;28;1918;-55
2023/05/15 10:37:46;;;;;;;;;;;;;;;16.66;47.93;100928.91;5078255;28;1083;-55
2023/05/15 10:40:11;;;;;;;;;;;;;;;16.69;48.15;100938.50;5076703;28;1186;-56
2023/05/15 10:42:37;;;;;;;;;;;;;;;17.20;48.86;100937.81;5082161;28;1079;-56
2023/05/15 10:45:03;;;;;;;;;;;;;;;16.75;48.55;100938.25;5097927;28;1129;-57
2023/05/15 10:47:29;;;;;;;;;;;;;;;16.63;48.05;100943.16;5066550;28;1208;-54
2023/05/15 10:49:55;;;;;;;;;;;;;;;16.45;47.39;100940.91;5085021;28;1102;-53
2023/05/15 10:52:20;;;;;;;;;;;;;;;17.77;47.88;100935.88;5071674;28;1082;-53
2023/05/15 10:54:46;;;;;;;;;;;;;;;16.95;48.66;100938.63;5089572;28;1974;-53
2023/05/15 10:57:13;;;;;;;;;;;;;;;16.61;48.27;100942.63;5071050;28;1058;-52
2023/05/15 10:59:40;;;;;;;;;;;;;;;16.55;47.51;100943.69;5079232;28;1086;-51
2023/05/15 11:02:25;;;;;;;;;;;;;;;16.98;47.91;100932.56;5097131;28;1035;-53
2023/05/15 11:04:57;;;;;;;;;;;;;;;17.01;48.46;100926.53;5096721;28;990;-54
2023/05/15 11:07:23;;;;;;;;;;;;;;;17.33;48.63;100929.00;5097395;28;1062;-53
2023/05/15 11:09:49;;;;;;;;;;;;;;;18.21;48.42;100918.69;5075682;28;1125;-52
2023/05/15 11:12:14;;;;;;;;;;;;;;;17.30;49.33;100921.31;5087098;28;1034;-53
2023/05/15 11:14:43;;;;;;;;;;;;;;;16.97;48.69;100918.03;5092151;28;1978;-53
2023/05/15 11:17:10;;;;;;;;;;;;;;;16.84;47.86;100918.50;5056541;28;1139;-55
2023/05/15 11:19:39;;;;;;;;;;;;;;;16.76;47.43;100923.44;5062548;28;1413;-51
2023/05/15 11:22:08;;;;;;;;;;;;;;;16.65;46.99;100918.19;5050192;28;1231;-56
2023/05/15 11:24:54;;;;;;;;;;;;;;;16.55;46.73;100918.97;5074476;28;1464;-45
2023/05/15 11:27:33;;;;;;;;;;;;;;;17.68;48.24;100910.84;5090281;28;1712;-55
2023/05/15 11:30:05;;;;;;;;;;;;;;;16.87;48.64;100921.53;5070889;28;1522;-54
2023/05/15 11:33:01;;;;;;;;;;;;;;;17.95;49.00;100923.50;5082073;28;1030;-50
2023/05/15 11:35:45;;;;;;;;;;;;;;;17.27;49.51;100919.13;5038206;28;1984;-54
2023/05/15 11:38:14;;;;;;;;;;;;;;;17.01;48.83;100908.13;5066249;28;1060;-53
2023/05/15 11:40:43;;;;;;;;;;;;;;;16.86;48.03;100916.34;5073857;28;1100;-55
2023/05/15 11:43:17;;;;;;;;;;;;;;;16.65;47.50;100919.03;5059444;28;1288;-55
2023/05/15 11:45:44;;;;;;;;;;;;;;;16.74;46.87;100914.63;5068702;28;1262;-55
2023/05/15 11:48:14;;;;;;;;;;;;;;;16.66;46.43;100911.59;5057564;28;1209;-53
2023/05/15 11:50:40;;;;;;;;;;;;;;;16.39;46.71;100913.44;5057149;28;1248;-53
2023/05/15 11:53:06;;;;;;;;;;;;;;;16.38;46.26;100906.31;5084218;28;1301;-53
2023/05/15 11:55:33;;;;;;;;;;;;;;;16.64;46.96;100913.81;5059038;28;1972;-51
2023/05/15 11:57:59;;;;;;;;;;;;;;;16.99;48.12;100904.00;5055227;28;1371;-51
2023/05/15 12:00:24;;;;;;;;;;;;;;;16.68;47.90;100910.25;5057395;28;1355;-51
2023/05/15 12:02:50;;;;;;;;;;;;;;;16.84;47.69;100897.34;5057243;28;1320;-51
2023/05/15 12:05:16;;;;;;;;;;;;;;;17.23;48.72;100893.31;5075403;28;1308;-53
2023/05/15 12:07:42;;;;;;;;;;;;;;;16.76;48.32;100890.50;5070275;28;1176;-52
2023/05/15 12:10:11;;;;;;;;;;;;;;;16.57;47.76;100887.41;5055585;28;1257;-49
2023/05/15 12:12:43;;;;;;;;;;;;;;;16.53;46.94;100882.75;5055709;28;1191;-54
2023/05/15 12:15:09;;;;;;;;;;;;;;;16.45;46.60;100880.53;5055542;28;1972;-54
2023/05/15 12:17:36;;;;;;;;;;;;;;;17.52;47.47;100879.81;5055487;28;955;-55
2023/05/15 12:20:01;;;;;;;;;;;;;;;16.80;48.32;100890.75;5055280;28;1178;-53
2023/05/15 12:22:27;;;;;;;;;;;;;;;16.69;47.60;100889.94;5038112;28;1015;-54
2023/05/15 12:24:52;;;;;;;;;;;;;;;16.55;46.97;100878.63;5055050;28;1269;-52
2023/05/15 12:27:18;;;;;;;;;;;;;;;16.42;46.68;100890.13;5071924;28;1447;-50
2023/05/15 12:29:43;;;;;;;;;;;;;;;16.31;46.33;100882.94;5064674;28;1328;-51
2023/05/15 12:32:09;;;;;;;;;;;;;;;16.26;45.93;100889.25;5074527;28;1296;-48
2023/05/15 12:34:34;;;;;;;;;;;;;;;17.81;47.36;100901.22;5065798;28;1902;-45
2023/05/15 12:37:00;;;;;;;;;;;;;;;16.91;48.42;100905.38;5065018;28;1202;-52
2023/05/15 12:39:26;;;;;;;;;;;;;;;16.58;48.05;100899.25;5065673;28;1437;-47
2023/05/15 12:41:54;;;;;;;;;;;;;;;16.49;47.12;100895.34;5066017;28;1194;-48
2023/05/15 12:44:20;;;;;;;;;;;;;;;17.41;47.76;100900.97;5064270;28;1317;-52
2023/05/15 12:46:46;;;;;;;;;;;;;;;16.70;48.19;100905.28;5063753;28;1178;-53
2023/05/15 12:49:11;;;;;;;;;;;;;;;16.96;48.55;100902.63;5065154;28;1292;-52